createdAt,value
2022-10-19T00:01:36.623Z,24.37
2022-10-19T00:03:39.444Z,25.90
2022-10-19T00:05:43.591Z,25.67
2022-10-19T00:07:47.643Z,26.00
2022-10-19T00:09:50.440Z,25.73
2022-10-19T00:11:53.110Z,24.63
2022-10-19T00:13:56.823Z,26.00
2022-10-19T00:15:59.491Z,26.60
2022-10-19T00:18:02.234Z,26.03
2022-10-19T00:20:05.545Z,25.77
2022-10-19T00:22:11.626Z,25.37
2022-10-19T00:24:17.889Z,25.00
2022-10-19T00:26:20.511Z,26.10
2022-10-19T00:28:23.180Z,25.40
2022-10-19T00:30:26.283Z,25.20
2022-10-19T00:32:28.984Z,25.70
2022-10-19T00:34:31.647Z,25.80
2022-10-19T00:36:35.284Z,25.23
2022-10-19T00:38:38.448Z,24.90
2022-10-19T00:40:42.447Z,25.53
2022-10-19T00:42:45.129Z,26.67
2022-10-19T00:45:01.152Z,26.33
2022-10-19T00:47:05.907Z,25.33
2022-10-19T00:49:10.888Z,24.90
2022-10-19T00:51:13.894Z,25.50
2022-10-19T00:53:17.052Z,25.60
2022-10-19T00:55:19.784Z,25.30
2022-10-19T00:57:23.837Z,25.83
2022-10-19T00:59:26.621Z,24.13
2022-10-19T01:01:29.900Z,25.73
2022-10-19T01:03:32.939Z,25.47
2022-10-19T01:05:35.618Z,24.23
2022-10-19T01:07:38.245Z,26.03
2022-10-19T01:09:40.939Z,24.90
2022-10-19T01:11:47.584Z,25.37
2022-10-19T01:13:56.225Z,25.67
2022-10-19T01:16:01.339Z,24.53
2022-10-19T01:18:07.161Z,25.00
2022-10-19T01:20:33.466Z,24.80
2022-10-19T01:22:43.208Z,23.70
2022-10-19T01:27:14.974Z,23.30
2022-10-19T01:29:19.980Z,24.70
2022-10-19T01:31:26.091Z,24.50
2022-10-19T01:33:33.907Z,24.20
2022-10-19T01:35:38.719Z,24.50
2022-10-19T01:37:43.019Z,24.57
2022-10-19T01:39:50.031Z,23.50
2022-10-19T01:42:03.947Z,23.30
2022-10-19T01:44:10.581Z,22.93
2022-10-19T01:46:14.522Z,22.73
2022-10-19T01:48:22.084Z,23.07
2022-10-19T01:50:26.221Z,23.17
2022-10-19T01:52:28.962Z,23.27
2022-10-19T01:54:35.150Z,22.20
2022-10-19T01:56:37.795Z,22.33
2022-10-19T01:58:40.939Z,22.63
2022-10-19T02:00:44.528Z,22.63
2022-10-19T02:02:48.407Z,22.10
2022-10-19T02:04:52.342Z,21.70
2022-10-19T02:06:55.456Z,23.73
2022-10-19T02:08:58.081Z,21.17
2022-10-19T02:11:00.757Z,22.70
2022-10-19T02:13:03.362Z,22.50
2022-10-19T02:15:10.747Z,21.60
2022-10-19T02:17:14.983Z,21.53
2022-10-19T02:19:17.666Z,21.60
2022-10-19T02:21:21.726Z,21.20
2022-10-19T02:23:25.531Z,21.13
2022-10-19T02:25:28.189Z,22.27
2022-10-19T02:27:30.849Z,21.70
2022-10-19T02:29:33.635Z,21.67
2022-10-19T02:31:36.799Z,21.10
2022-10-19T02:33:39.457Z,20.70
2022-10-19T02:35:42.134Z,20.17
2022-10-19T02:37:46.100Z,20.60
2022-10-19T02:39:49.114Z,19.63
2022-10-19T02:41:53.646Z,20.27
2022-10-19T02:43:58.688Z,21.30
2022-10-19T02:46:02.742Z,20.53
2022-10-19T02:48:07.377Z,19.37
2022-10-19T02:50:10.646Z,20.47
2022-10-19T02:52:13.697Z,20.13
2022-10-19T02:54:17.687Z,20.20
2022-10-19T02:56:20.913Z,20.67
2022-10-19T02:58:23.506Z,19.43
2022-10-19T03:00:26.180Z,20.03
2022-10-19T03:02:28.858Z,18.83
2022-10-19T03:04:32.008Z,19.70
2022-10-19T03:06:34.688Z,18.80
2022-10-19T03:08:37.392Z,19.30
2022-10-19T03:10:41.340Z,19.60
2022-10-19T03:12:44.343Z,19.27
2022-10-19T03:14:46.934Z,18.20
2022-10-19T03:16:49.626Z,18.63
2022-10-19T03:18:52.501Z,18.23
2022-10-19T03:21:03.155Z,17.77
2022-10-19T03:23:05.814Z,18.97
2022-10-19T03:25:09.145Z,18.87
2022-10-19T03:27:13.464Z,17.87
2022-10-19T03:29:16.505Z,17.10
2022-10-19T03:31:19.185Z,17.57
2022-10-19T03:33:21.997Z,17.70
2022-10-19T03:35:24.695Z,17.80
2022-10-19T03:37:27.875Z,18.77
2022-10-19T03:39:30.640Z,16.90
2022-10-19T03:41:34.227Z,17.47
2022-10-19T03:43:38.220Z,18.10
2022-10-19T03:45:41.436Z,17.97
2022-10-19T03:47:44.124Z,17.60
2022-10-19T03:49:46.845Z,17.10
2022-10-19T03:51:49.499Z,17.30
2022-10-19T03:53:53.237Z,16.10
2022-10-19T03:56:02.042Z,16.20
2022-10-19T03:58:04.672Z,17.20
2022-10-19T04:00:09.835Z,16.00
2022-10-19T04:02:12.833Z,16.47
2022-10-19T04:04:16.515Z,16.60
2022-10-19T04:06:21.964Z,15.70
2022-10-19T04:08:25.013Z,15.50
2022-10-19T04:10:27.668Z,15.40
2022-10-19T04:12:30.317Z,15.70
2022-10-19T04:14:39.323Z,15.60
2022-10-19T04:16:56.879Z,15.10
2022-10-19T04:18:59.629Z,14.70
2022-10-19T04:21:02.782Z,15.50
2022-10-19T04:23:05.809Z,14.47
2022-10-19T04:25:11.119Z,15.30
2022-10-19T04:27:13.792Z,14.27
2022-10-19T04:29:17.401Z,13.40
2022-10-19T04:31:20.509Z,13.80
2022-10-19T04:33:24.463Z,14.67
2022-10-19T04:35:27.085Z,13.50
2022-10-19T04:37:29.699Z,13.47
2022-10-19T04:39:33.355Z,12.77
2022-10-19T04:41:36.034Z,13.13
2022-10-19T04:43:38.694Z,12.03
2022-10-19T04:45:41.323Z,12.30
2022-10-19T04:47:44.441Z,13.50
2022-10-19T04:49:48.314Z,11.57
2022-10-19T04:51:50.970Z,11.27
2022-10-19T04:53:59.345Z,11.60
2022-10-19T04:56:05.802Z,11.63
2022-10-19T04:58:08.505Z,12.00
2022-10-19T05:00:12.007Z,11.40
2022-10-19T05:02:15.115Z,12.03
2022-10-19T05:04:17.747Z,11.50
2022-10-19T05:06:21.721Z,11.90
2022-10-19T05:08:24.418Z,10.90
2022-10-19T05:10:27.295Z,11.00
2022-10-19T05:12:29.939Z,11.40
2022-10-19T05:14:35.788Z,11.47
2022-10-19T05:16:40.916Z,10.40
2022-10-19T05:18:43.689Z,11.60
2022-10-19T05:20:46.362Z,10.00
2022-10-19T05:22:50.369Z,9.80
2022-10-19T05:24:55.946Z,10.60
2022-10-19T05:27:00.757Z,9.80
2022-10-19T05:29:04.464Z,10.17
2022-10-19T05:31:09.093Z,9.53
2022-10-19T05:33:12.035Z,9.53
2022-10-19T05:35:17.442Z,10.57
2022-10-19T05:37:23.247Z,10.00
2022-10-19T05:39:27.139Z,9.93
2022-10-19T05:41:30.205Z,10.00
2022-10-19T05:43:32.860Z,9.03
2022-10-19T05:45:35.536Z,10.07
2022-10-19T05:47:38.163Z,9.27
2022-10-19T05:49:41.112Z,8.83
2022-10-19T05:51:43.831Z,10.07
2022-10-19T05:53:46.551Z,9.40
2022-10-19T05:55:50.466Z,9.47
2022-10-19T05:57:53.524Z,8.80
2022-10-19T05:59:58.358Z,8.57
2022-10-19T06:02:01.047Z,9.00
2022-10-19T06:04:04.086Z,8.70
2022-10-19T06:06:07.780Z,8.40
2022-10-19T06:08:10.437Z,7.60
2022-10-19T06:10:13.153Z,9.40
2022-10-19T06:12:19.432Z,8.33
2022-10-19T06:14:23.380Z,9.23
2022-10-19T06:16:26.734Z,9.83
2022-10-19T06:18:29.591Z,9.13
2022-10-19T06:20:32.235Z,10.10
2022-10-19T06:22:35.180Z,9.10
2022-10-19T06:24:37.798Z,8.77
2022-10-19T06:26:40.486Z,7.60
2022-10-19T06:28:44.626Z,8.03
2022-10-19T06:30:47.597Z,8.10
2022-10-19T06:32:50.340Z,8.00
2022-10-19T06:34:56.435Z,7.33
2022-10-19T06:36:59.329Z,8.40
2022-10-19T06:39:02.678Z,7.37
2022-10-19T06:41:05.448Z,7.23
2022-10-19T06:43:08.103Z,6.97
2022-10-19T06:45:12.316Z,7.00
2022-10-19T06:47:15.309Z,7.30
2022-10-19T06:49:18.013Z,7.63
2022-10-19T06:51:20.832Z,7.03
2022-10-19T06:53:23.478Z,7.70
2022-10-19T06:55:29.172Z,7.20
2022-10-19T06:57:31.993Z,7.70
2022-10-19T06:59:34.961Z,7.60
2022-10-19T07:01:39.044Z,7.30
2022-10-19T07:03:43.207Z,6.70
2022-10-19T07:05:53.958Z,7.43
2022-10-19T07:07:56.658Z,6.90
2022-10-19T07:09:59.399Z,7.10
2022-10-19T07:12:02.123Z,6.93
2022-10-19T07:14:04.856Z,8.90
2022-10-19T07:16:09.119Z,7.53
2022-10-19T07:18:13.370Z,7.47
2022-10-19T07:20:16.112Z,6.80
2022-10-19T07:22:23.275Z,7.40
2022-10-19T07:24:28.557Z,7.27
2022-10-19T07:26:33.702Z,7.27
2022-10-19T07:28:36.440Z,7.40
2022-10-19T07:30:39.249Z,6.90
2022-10-19T07:32:45.993Z,6.77
2022-10-19T07:34:51.224Z,6.67
2022-10-19T07:36:54.869Z,7.30
2022-10-19T07:38:57.578Z,7.10
2022-10-19T07:41:02.361Z,7.43
2022-10-19T07:43:05.347Z,7.73
2022-10-19T07:45:08.566Z,6.67
2022-10-19T07:47:11.227Z,8.40
2022-10-19T07:49:16.242Z,7.53
2022-10-19T07:51:21.859Z,7.80
2022-10-19T07:53:24.551Z,7.63
2022-10-19T07:55:27.234Z,8.60
2022-10-19T07:57:29.944Z,9.07
2022-10-19T07:59:33.646Z,9.53
2022-10-19T08:01:41.042Z,9.50
2022-10-19T08:04:37.619Z,9.13
2022-10-19T08:06:07.354Z,10.83
2022-10-19T08:08:11.590Z,10.63
2022-10-19T08:10:14.389Z,10.13
2022-10-19T08:12:17.129Z,10.43
2022-10-19T08:14:19.786Z,10.70
2022-10-19T08:16:25.733Z,11.10
2022-10-19T08:18:29.206Z,10.23
2022-10-19T08:20:31.970Z,11.50
2022-10-19T08:22:35.016Z,11.60
2022-10-19T08:24:39.710Z,12.27
2022-10-19T08:26:42.428Z,13.00
2022-10-19T08:28:45.163Z,12.43
2022-10-19T08:30:47.850Z,13.43
2022-10-19T08:32:50.797Z,14.03
2022-10-19T08:34:53.439Z,14.37
2022-10-19T08:36:56.210Z,13.17
2022-10-19T08:38:59.056Z,13.43
2022-10-19T08:41:07.812Z,12.30
2022-10-19T08:43:13.642Z,13.50
2022-10-19T08:45:28.304Z,13.77
2022-10-19T08:47:42.306Z,13.20
2022-10-19T08:49:44.958Z,13.93
2022-10-19T08:51:48.951Z,13.70
2022-10-19T08:53:53.529Z,13.87
2022-10-19T08:56:05.576Z,13.70
2022-10-19T08:58:17.267Z,14.50
2022-10-19T09:00:22.138Z,15.63
2022-10-19T09:02:35.927Z,16.37
2022-10-19T09:04:39.738Z,14.83
2022-10-19T09:06:48.977Z,15.53
2022-10-19T09:08:52.422Z,15.70
2022-10-19T09:10:55.203Z,15.27
2022-10-19T09:12:59.525Z,16.10
2022-10-19T09:15:04.812Z,16.10
2022-10-19T09:17:12.851Z,15.13
2022-10-19T09:19:19.100Z,16.00
2022-10-19T09:21:30.910Z,16.60
2022-10-19T09:23:40.786Z,16.30
2022-10-19T09:25:44.050Z,15.87
2022-10-19T09:27:50.305Z,16.43
2022-10-19T09:29:56.081Z,17.20
2022-10-19T09:32:00.995Z,16.10
2022-10-19T09:34:06.484Z,16.37
2022-10-19T09:36:12.276Z,16.00
2022-10-19T09:38:20.806Z,15.57
2022-10-19T09:40:26.203Z,16.17
2022-10-19T09:42:34.465Z,15.80
2022-10-19T09:44:37.592Z,14.47
2022-10-19T09:48:50.592Z,15.50
2022-10-19T09:50:56.509Z,14.97
2022-10-19T09:52:59.416Z,16.27
2022-10-19T09:55:03.016Z,16.23
2022-10-19T09:57:05.882Z,16.03
2022-10-19T09:59:19.794Z,15.67
2022-10-19T10:01:41.579Z,14.90
2022-10-19T10:03:45.564Z,15.67
2022-10-19T10:05:49.718Z,15.93
2022-10-19T10:07:59.441Z,16.17
2022-10-19T10:10:02.602Z,16.80
2022-10-19T10:12:08.455Z,16.17
2022-10-19T10:14:15.775Z,15.23
2022-10-19T10:16:19.551Z,15.70
2022-10-19T10:18:22.684Z,16.90
2022-10-19T10:20:28.026Z,16.10
2022-10-19T10:22:33.579Z,14.50
2022-10-19T10:24:36.920Z,15.97
2022-10-19T10:26:41.247Z,15.80
2022-10-19T10:28:48.130Z,15.10
2022-10-19T10:30:53.860Z,15.30
2022-10-19T10:33:04.718Z,14.90
2022-10-19T10:35:19.565Z,15.17
2022-10-19T10:37:23.277Z,15.00
2022-10-19T10:39:28.557Z,15.27
2022-10-19T10:41:31.829Z,13.73
2022-10-19T10:43:36.141Z,15.43
2022-10-19T10:45:40.101Z,15.03
2022-10-19T10:47:43.599Z,14.43
2022-10-19T10:49:48.764Z,14.87
2022-10-19T10:51:53.088Z,16.30
2022-10-19T10:54:09.657Z,14.73
2022-10-19T10:56:23.572Z,15.37
2022-10-19T10:58:32.475Z,16.20
2022-10-19T11:00:38.861Z,14.97
2022-10-19T11:02:46.396Z,14.90
2022-10-19T11:04:54.434Z,14.80
2022-10-19T11:07:03.822Z,15.77
2022-10-19T11:09:11.638Z,14.47
2022-10-19T11:11:17.117Z,14.70
2022-10-19T11:13:27.973Z,15.90
2022-10-19T11:15:33.116Z,15.30
2022-10-19T11:17:37.990Z,14.80
2022-10-19T11:19:43.211Z,14.50
2022-10-19T11:21:51.071Z,14.70
2022-10-19T11:24:00.445Z,15.40
2022-10-19T11:26:09.287Z,16.43
2022-10-19T11:28:21.282Z,15.60
2022-10-19T11:30:25.523Z,15.60
2022-10-19T11:32:31.089Z,16.17
2022-10-19T11:34:40.056Z,16.60
2022-10-19T11:36:47.208Z,17.10
2022-10-19T11:38:57.350Z,16.23
2022-10-19T11:41:22.588Z,17.40
2022-10-19T11:43:29.049Z,17.70
2022-10-19T11:45:39.955Z,17.50
2022-10-19T11:47:53.657Z,16.23
2022-10-19T11:50:00.861Z,16.90
2022-10-19T11:52:07.472Z,16.57
2022-10-19T11:54:17.932Z,18.50
2022-10-19T11:56:21.288Z,19.63
2022-10-19T11:58:34.634Z,17.63
2022-10-19T12:00:42.151Z,18.20
2022-10-19T12:03:05.968Z,19.27
2022-10-19T12:05:10.129Z,18.60
2022-10-19T12:07:21.238Z,18.10
2022-10-19T12:09:29.514Z,18.30
2022-10-19T12:11:40.681Z,18.60
2022-10-19T12:13:45.229Z,18.33
2022-10-19T12:15:49.823Z,18.70
2022-10-19T12:17:53.576Z,18.70
2022-10-19T12:19:57.929Z,19.90
2022-10-19T12:22:01.635Z,19.20
2022-10-19T12:24:06.009Z,18.63
2022-10-19T12:26:09.691Z,18.20
2022-10-19T12:28:13.957Z,18.00
2022-10-19T12:30:17.954Z,18.27
2022-10-19T12:32:21.909Z,17.07
2022-10-19T12:34:31.816Z,17.17
2022-10-19T12:36:38.052Z,18.00
2022-10-19T12:38:47.989Z,16.93
2022-10-19T12:40:56.599Z,18.77
2022-10-19T12:43:02.863Z,18.07
2022-10-19T12:45:12.295Z,18.10
2022-10-19T12:47:17.412Z,18.83
2022-10-19T12:49:38.524Z,18.00
2022-10-19T12:51:48.194Z,16.77
2022-10-19T12:53:51.117Z,18.73
2022-10-19T12:56:00.424Z,17.93
2022-10-19T12:58:05.309Z,16.43
2022-10-19T13:00:20.362Z,18.43
2022-10-19T13:02:26.392Z,17.87
2022-10-19T13:04:30.074Z,17.40
2022-10-19T13:06:37.560Z,18.23
2022-10-19T13:08:43.392Z,17.73
2022-10-19T13:10:46.666Z,18.27
2022-10-19T13:12:49.450Z,18.00
2022-10-19T13:14:52.806Z,17.60
2022-10-19T13:17:00.721Z,18.73
2022-10-19T13:19:04.376Z,17.50
2022-10-19T13:21:08.549Z,18.73
2022-10-19T13:23:35.509Z,17.80
2022-10-19T13:25:39.601Z,18.50
2022-10-19T13:27:42.323Z,18.50
2022-10-19T13:29:45.431Z,17.90
2022-10-19T13:31:48.640Z,17.83
2022-10-19T13:33:52.486Z,18.37
2022-10-19T13:36:07.042Z,19.87
2022-10-19T13:38:26.570Z,17.87
2022-10-19T13:40:29.469Z,18.77
2022-10-19T13:42:33.820Z,18.73
2022-10-19T13:44:37.576Z,19.47
2022-10-19T13:46:48.384Z,19.00
2022-10-19T13:49:03.470Z,18.47
2022-10-19T13:51:08.771Z,19.37
2022-10-19T13:53:19.526Z,18.43
2022-10-19T13:55:33.606Z,19.07
2022-10-19T13:57:48.899Z,19.10
2022-10-19T14:00:04.649Z,19.57
2022-10-19T14:02:28.110Z,18.70
2022-10-19T14:04:36.110Z,18.87
2022-10-19T14:06:41.137Z,18.23
2022-10-19T14:08:57.130Z,19.40
2022-10-19T14:11:01.512Z,19.17
2022-10-19T14:13:06.229Z,20.07
2022-10-19T14:15:17.166Z,19.93
2022-10-19T14:17:20.971Z,19.70
2022-10-19T14:19:27.099Z,20.37
2022-10-19T14:21:30.422Z,19.17
2022-10-19T14:23:35.515Z,19.70
2022-10-19T14:25:38.214Z,19.40
2022-10-19T14:27:40.867Z,18.77
2022-10-19T14:29:46.966Z,18.00
2022-10-19T14:31:49.950Z,18.80
2022-10-19T14:33:53.466Z,19.47
2022-10-19T14:35:56.242Z,18.97
2022-10-19T14:37:59.022Z,17.90
2022-10-19T14:40:03.606Z,17.70
2022-10-19T14:42:06.814Z,18.20
2022-10-19T14:44:23.308Z,19.17
2022-10-19T14:46:27.694Z,17.13
2022-10-19T14:48:31.811Z,17.87
2022-10-19T14:50:40.678Z,18.40
2022-10-19T14:52:43.396Z,18.60
2022-10-19T14:54:47.016Z,17.53
2022-10-19T14:56:51.672Z,17.70
2022-10-19T14:58:56.306Z,17.47
2022-10-19T15:00:58.947Z,16.60
2022-10-19T15:03:05.375Z,16.90
2022-10-19T15:05:14.947Z,17.50
2022-10-19T15:07:19.667Z,16.43
2022-10-19T15:09:37.548Z,17.07
2022-10-19T15:11:49.777Z,16.07
2022-10-19T15:13:57.222Z,16.53
2022-10-19T15:16:00.443Z,16.33
2022-10-19T15:18:06.053Z,16.07
2022-10-19T15:20:23.348Z,16.90
2022-10-19T15:22:39.858Z,17.30
2022-10-19T15:24:42.840Z,16.70
2022-10-19T15:27:01.678Z,16.20
2022-10-19T15:29:10.177Z,16.73
2022-10-19T15:31:18.158Z,17.57
2022-10-19T15:33:22.168Z,17.50
2022-10-19T15:35:27.303Z,16.97
2022-10-19T15:37:30.057Z,17.47
2022-10-19T15:39:39.729Z,16.13
2022-10-19T15:41:44.951Z,16.20
2022-10-19T15:43:50.702Z,16.53
2022-10-19T15:46:00.453Z,16.20
2022-10-19T15:48:18.377Z,15.50
2022-10-19T15:50:38.310Z,16.03
2022-10-19T15:52:41.486Z,16.47
2022-10-19T15:54:44.365Z,15.60
2022-10-19T15:56:48.677Z,16.37
2022-10-19T15:58:52.052Z,15.70
2022-10-19T16:00:58.801Z,15.70
2022-10-19T16:03:10.167Z,16.20
2022-10-19T16:05:16.356Z,17.07
2022-10-19T16:07:27.269Z,16.33
2022-10-19T16:09:30.635Z,17.60
2022-10-19T16:11:36.573Z,16.43
2022-10-19T16:13:39.672Z,15.20
2022-10-19T16:15:43.055Z,16.67
2022-10-19T16:17:47.074Z,15.40
2022-10-19T16:19:50.622Z,16.27
2022-10-19T16:21:53.347Z,16.00
2022-10-19T16:23:58.423Z,15.80
2022-10-19T16:26:01.171Z,14.97
2022-10-19T16:28:04.008Z,16.20
2022-10-19T16:30:07.616Z,14.50
2022-10-19T16:32:10.831Z,15.00
2022-10-19T16:34:16.116Z,15.03
2022-10-19T16:36:20.397Z,14.83
2022-10-19T16:38:23.072Z,14.57
2022-10-19T16:40:28.539Z,14.63
2022-10-19T16:42:31.251Z,15.40
2022-10-19T16:44:33.881Z,15.47
2022-10-19T16:46:36.539Z,16.63
2022-10-19T16:48:39.200Z,15.30
2022-10-19T16:52:44.941Z,14.53
2022-10-19T16:54:47.618Z,15.00
2022-10-19T16:56:51.606Z,15.13
2022-10-19T16:58:55.511Z,14.50
2022-10-19T17:01:01.414Z,14.67
2022-10-19T17:03:04.172Z,13.67
2022-10-19T17:05:07.098Z,13.93
2022-10-19T17:07:11.470Z,14.60
2022-10-19T17:11:37.590Z,14.40
2022-10-19T17:13:41.761Z,14.57
2022-10-19T17:15:44.858Z,15.40
2022-10-19T17:17:47.593Z,13.97
2022-10-19T17:19:50.303Z,14.00
2022-10-19T17:21:55.347Z,14.17
2022-10-19T17:23:59.366Z,13.53
2022-10-19T17:26:02.066Z,14.03
2022-10-19T17:28:04.898Z,13.63
2022-10-19T17:30:09.539Z,13.53
2022-10-19T17:32:12.594Z,13.70
2022-10-19T17:34:15.248Z,13.50
2022-10-19T17:36:20.808Z,13.00
2022-10-19T17:38:24.201Z,12.53
2022-10-19T17:40:27.542Z,13.37
2022-10-19T17:42:31.090Z,13.77
2022-10-19T17:44:34.222Z,12.60
2022-10-19T17:46:38.174Z,13.80
2022-10-19T17:48:43.755Z,14.07
2022-10-19T17:50:58.173Z,13.47
2022-10-19T17:53:01.967Z,14.67
2022-10-19T17:55:12.114Z,13.97
2022-10-19T17:57:18.316Z,14.50
2022-10-19T17:59:30.481Z,13.60
2022-10-19T18:01:40.008Z,15.13
2022-10-19T18:03:43.347Z,14.40
2022-10-19T18:05:46.134Z,15.33
2022-10-19T18:07:51.871Z,15.27
2022-10-19T18:10:15.130Z,16.73
2022-10-19T18:12:30.200Z,15.63
2022-10-19T18:14:33.973Z,15.70
2022-10-19T18:16:39.153Z,15.90
2022-10-19T18:18:47.003Z,15.77
2022-10-19T18:20:50.501Z,17.40
2022-10-19T18:22:53.530Z,17.50
2022-10-19T18:24:59.606Z,17.27
2022-10-19T18:27:02.340Z,17.90
2022-10-19T18:29:11.196Z,16.90
2022-10-19T18:31:15.341Z,16.37
2022-10-19T18:33:18.044Z,17.40
2022-10-19T18:35:22.029Z,17.90
2022-10-19T18:37:25.685Z,17.90
2022-10-19T18:39:28.362Z,17.33
2022-10-19T18:41:31.104Z,16.40
2022-10-19T18:43:35.019Z,16.50
2022-10-19T18:45:37.728Z,18.00
2022-10-19T18:47:43.155Z,17.70
2022-10-19T18:49:51.482Z,17.37
2022-10-19T18:51:56.042Z,18.33
2022-10-19T18:54:00.329Z,18.87
2022-10-19T18:56:04.797Z,18.87
2022-10-19T18:58:08.945Z,16.73
2022-10-19T19:00:12.527Z,19.00
2022-10-19T19:02:22.185Z,19.00
2022-10-19T19:04:25.932Z,19.90
2022-10-19T19:06:29.982Z,19.00
2022-10-19T19:08:34.110Z,18.47
2022-10-19T19:10:36.860Z,19.50
2022-10-19T19:12:42.070Z,18.90
2022-10-19T19:14:45.157Z,20.00
2022-10-19T19:16:47.961Z,20.43
2022-10-19T19:18:50.903Z,21.63
2022-10-19T19:20:54.028Z,21.43
2022-10-19T19:22:56.708Z,21.67
2022-10-19T19:25:00.754Z,22.10
2022-10-19T19:27:03.533Z,21.80
2022-10-19T19:29:06.154Z,21.27
2022-10-19T19:31:09.065Z,22.20
2022-10-19T19:33:12.241Z,20.87
2022-10-19T19:35:14.914Z,21.00
2022-10-19T19:37:17.576Z,21.13
2022-10-19T19:39:21.695Z,21.80
2022-10-19T19:41:26.079Z,21.43
2022-10-19T19:43:28.785Z,22.33
2022-10-19T19:45:31.574Z,21.80
2022-10-19T19:47:35.719Z,22.27
2022-10-19T19:49:40.370Z,21.63
2022-10-19T19:51:43.245Z,22.97
2022-10-19T19:53:45.979Z,21.30
2022-10-19T19:55:48.946Z,22.63
2022-10-19T19:57:54.346Z,22.90
2022-10-19T19:59:57.001Z,21.60
2022-10-19T20:02:00.490Z,23.07
2022-10-19T20:06:06.738Z,21.50
2022-10-19T20:08:10.250Z,22.50
2022-10-19T20:10:15.963Z,22.53
2022-10-19T20:12:18.656Z,22.00
2022-10-19T20:14:22.626Z,23.03
2022-10-19T20:16:29.191Z,21.90
2022-10-19T20:18:32.192Z,22.37
2022-10-19T20:20:34.839Z,23.20
2022-10-19T20:22:37.518Z,22.50
2022-10-19T20:24:40.522Z,22.40
2022-10-19T20:26:43.177Z,24.13
2022-10-19T20:28:51.765Z,23.97
2022-10-19T20:31:03.249Z,23.03
2022-10-19T20:33:05.899Z,23.60
2022-10-19T20:35:08.901Z,23.37
2022-10-19T20:37:11.813Z,24.33
2022-10-19T20:39:14.963Z,24.90
2022-10-19T20:41:19.248Z,26.67
2022-10-19T20:43:21.926Z,25.27
2022-10-19T20:45:24.566Z,25.10
2022-10-19T20:47:28.882Z,24.63
2022-10-19T20:49:31.580Z,26.03
2022-10-19T20:51:36.465Z,26.50
2022-10-19T20:53:39.189Z,26.03
2022-10-19T20:55:42.295Z,26.27
2022-10-19T20:57:44.952Z,27.07
2022-10-19T20:59:47.655Z,26.87
2022-10-19T21:01:50.870Z,26.90
2022-10-19T21:03:56.058Z,27.13
2022-10-19T21:06:00.864Z,27.83
2022-10-19T21:08:04.432Z,26.50
2022-10-19T21:10:07.807Z,26.83
2022-10-19T21:12:10.552Z,27.70
2022-10-19T21:14:14.344Z,27.37
2022-10-19T21:16:18.462Z,27.80
2022-10-19T21:18:21.168Z,28.30
2022-10-19T21:20:25.544Z,28.53
2022-10-19T21:22:28.219Z,28.10
2022-10-19T21:24:32.338Z,30.73
2022-10-19T21:26:35.699Z,29.00
2022-10-19T21:28:40.640Z,28.80
2022-10-19T21:30:43.275Z,29.20
2022-10-19T21:32:46.709Z,29.00
2022-10-19T21:34:49.406Z,28.80
2022-10-19T21:36:53.784Z,29.30
2022-10-19T21:38:56.919Z,30.00
2022-10-19T21:40:59.587Z,30.53
2022-10-19T21:43:02.250Z,29.80
2022-10-19T21:45:25.689Z,30.43
2022-10-19T21:47:27.923Z,29.47
2022-10-19T21:49:30.569Z,30.57
2022-10-19T21:51:36.059Z,29.60
2022-10-19T21:53:40.025Z,30.40
2022-10-19T21:55:42.703Z,29.80
2022-10-19T21:57:45.412Z,30.80
2022-10-19T21:59:48.583Z,32.50
2022-10-19T22:01:51.285Z,30.70
2022-10-19T22:03:57.642Z,31.60
2022-10-19T22:06:00.297Z,30.93
2022-10-19T22:08:03.426Z,30.10
2022-10-19T22:10:07.784Z,30.80
2022-10-19T22:12:10.483Z,32.43
2022-10-19T22:14:14.063Z,34.03
2022-10-19T22:16:18.842Z,32.17
2022-10-19T22:18:21.527Z,32.40
2022-10-19T22:20:24.202Z,31.30
2022-10-19T22:22:26.845Z,32.20
2022-10-19T22:24:29.898Z,32.23
2022-10-19T22:26:34.602Z,32.80
2022-10-19T22:28:37.307Z,33.00
2022-10-19T22:30:42.668Z,32.83
2022-10-19T22:32:45.734Z,32.87
2022-10-19T22:34:48.377Z,33.90
2022-10-19T22:36:51.084Z,33.67
2022-10-19T22:38:55.047Z,33.13
2022-10-19T22:41:21.468Z,33.90
2022-10-19T22:43:37.283Z,32.43
2022-10-19T22:45:40.023Z,33.93
2022-10-19T22:47:43.047Z,34.60
2022-10-19T22:49:45.849Z,33.63
2022-10-19T22:51:48.522Z,34.20
2022-10-19T22:53:51.203Z,36.00
2022-10-19T22:55:54.387Z,34.50
2022-10-19T22:57:57.080Z,36.50
2022-10-19T23:00:01.106Z,34.20
2022-10-19T23:02:03.855Z,34.33
2022-10-19T23:04:06.839Z,34.40
2022-10-19T23:06:10.072Z,36.33
2022-10-19T23:08:12.779Z,34.43
2022-10-19T23:10:16.121Z,35.57
2022-10-19T23:12:19.277Z,35.70
2022-10-19T23:14:24.304Z,36.17
2022-10-19T23:16:29.185Z,37.10
2022-10-19T23:18:33.336Z,37.27
2022-10-19T23:20:36.074Z,36.67
2022-10-19T23:22:39.110Z,37.00
2022-10-19T23:24:41.912Z,36.13
2022-10-19T23:26:45.092Z,35.87
2022-10-19T23:28:48.889Z,35.50
2022-10-19T23:30:52.000Z,36.60
2022-10-19T23:32:56.040Z,36.27
2022-10-19T23:34:59.058Z,37.73
2022-10-19T23:37:01.758Z,35.87
2022-10-19T23:39:04.582Z,38.00
2022-10-19T23:41:07.385Z,38.47
2022-10-19T23:43:10.267Z,37.43
2022-10-19T23:45:15.278Z,36.60
2022-10-19T23:47:18.061Z,38.47
2022-10-19T23:49:22.153Z,37.73
2022-10-19T23:51:25.307Z,38.37
2022-10-19T23:53:28.145Z,37.90
2022-10-19T23:55:30.799Z,40.73
2022-10-19T23:57:33.810Z,38.03
2022-10-19T23:59:37.217Z,38.83
